メインページ
METAR-TAF:

METAR-TAF

空港 :

ハイファ空港

ハイファ, イスラエル

緯度: 32-48N, 経度: 035-02E, 海抜: 8m

現時点の気象観測

当レポートは5時間34分前の19:50(UTC)に作成
北西の風 4kt
気温 27°C
湿度 79%
気圧 1012 hPa
視程10km以上
高度1900ftの雲は散在している

METAR: LLHA 241950Z 32004KT 9999 SCT019 27/23 Q1012

時間: 04:24 (01:24 UTC)

予報

当レポートは2時間22分前の23:02(UTC)に作成
予報は25日の 00時(UTC)から 25日の 24時(UTC)まで有効
変向風 3kt
視程10km以上
高度2000ftの雲は散在している
25日の 07時(UTC)から 25日の 09時(UTC)まで徐々に
西の風 8kt
高度3000ftの雲はほとんどない
25日の 20時(UTC)から 25日の 22時(UTC)まで徐々に
変向風 3kt
視程10km以上
高度2500ftの雲は散在している

TAF: LLHA 242302Z 2500/2524 VRB03KT 9999 SCT020 BECMG 2507/2509 26008KT FEW030 BECMG 2520/2522 VRB03KT 9999 SCT025 TX29/2512Z TN24/2504Z

4,000以上の空港の気象観測と天気予報(METAR報とTAF報)

利用可能な観測所は地図上に黄色い丸と赤い丸で示す。

丸の上にカーソルを重ねると観測所名を参照できる。

次にクリックすると気象観測と天気予報を参照できる。

マップの切り替え:黒色「×」印の緑ボタンをクリックして拡大、「-」印の緑ボタンをクリックして縮小、緑色の三角印をクリックして隣りの地図に切り替え


METAR-TAF: